MET'MAP v2.0
soon released !

Expected late october,
this new version will be
more efficient, smarter,
and hosted on a brand new
server x3 powerfull...
...and still free !


Not compatible ?
Try the mobile version !

LOG IN : | Subscribe | Disclaimer | Who is Orbifly ? |
ICAO code :

TAF - DAOF Tindouf Airport - 02 Apr 2020 15:36 UTC - Data Source NOAA   


- Airport Elevation : 1453 ft
- IATA code : TIN
- No reported NOTAMs.


DAOF - Tindouf Airport

Latest METAR recorded : 2015/08/11 08:00 DAOF 110800Z 02004KT 8000 FEW046 SCT100 34/08 Q1014
TAF TAF DAOF
Valid from the 02 at 12:00 until the 02 at 21:00 UTC


021100Z 0212/0221 30020KT CAVOK
PROB30
TEMPO 0215/0218 30020G30KT 4000 DRSA

Source NOAA


MET'MAP, your aeronautical weather chart ! - Copyright ORBIFLY December 2007

Programming & Development : Alexandra Zaïnal
Co-Developer : Marc-Olivier Méhu
Technical & hardware support : Manuel Goepfert
Concept & Financing : Baudouin d'Aumeries